Time;durP1;ratioP1;P1;durP2;ratioP2;P2;SDS_P1;SDS_P2;PMS_P1;PMS_P2;Temp;Humidity;BMP_temperature;BMP_pressure;BME280_temperature;BME280_humidity;BME280_pressure;Samples;Min_cycle;Max_cycle;Signal;HPM_P1;HPM_P2
2022/09/25 00:01:35;;;;;;;16.85;15.85;;;;;;;7.76;100.00;101067.31;5051306;28;20025;-70
2022/09/25 00:04:02;;;;;;;17.38;16.27;;;;;;;7.46;100.00;101057.78;5053712;28;20021;-70
2022/09/25 00:06:28;;;;;;;17.60;16.52;;;;;;;7.44;100.00;101059.75;5049650;28;20087;-71
2022/09/25 00:08:55;;;;;;;17.30;16.30;;;;;;;7.48;100.00;101069.03;5051954;28;20507;-71
2022/09/25 00:11:27;;;;;;;17.20;16.20;;;;;;;7.43;100.00;101059.91;5053524;28;20025;-71
2022/09/25 00:13:54;;;;;;;16.70;15.77;;;;;;;7.51;100.00;101069.75;5046790;28;20388;-71
2022/09/25 00:16:22;;;;;;;18.20;17.00;;;;;;;7.40;100.00;101071.53;5053396;28;20033;-70
2022/09/25 00:21:34;;;;;;;17.40;16.30;;;;;;;7.32;100.00;101071.41;5058302;28;20398;-71
2022/09/25 00:24:02;;;;;;;17.30;16.30;;;;;;;7.37;100.00;101065.72;5052491;28;20063;-71
2022/09/25 00:26:30;;;;;;;17.38;16.38;;;;;;;7.31;100.00;101072.41;5042923;28;20582;-71
2022/09/25 00:28:59;;;;;;;19.17;17.98;;;;;;;7.07;100.00;101064.91;5053421;28;20550;-72
2022/09/25 00:31:26;;;;;;;19.30;18.10;;;;;;;7.08;100.00;101047.28;5053463;28;20012;-71
2022/09/25 00:33:52;;;;;;;18.17;17.08;;;;;;;7.16;100.00;101050.06;5052023;28;20063;-71
2022/09/25 00:36:19;;;;;;;18.95;17.70;;;;;;;7.15;100.00;101049.22;5053054;28;20037;-71
2022/09/25 00:38:47;;;;;;;17.95;16.85;;;;;;;7.18;100.00;101053.38;5056707;28;20488;-70
2022/09/25 00:41:14;;;;;;;18.02;16.92;;;;;;;7.13;100.00;101042.44;5051243;28;20033;-70
2022/09/25 00:43:47;;;;;;;17.33;16.27;;;;;;;7.13;100.00;101043.25;5052926;28;20104;-71
2022/09/25 00:46:22;;;;;;;17.35;16.35;;;;;;;7.20;100.00;101043.53;5052934;28;20033;-71
2022/09/25 00:48:58;;;;;;;17.48;16.48;;;;;;;7.16;100.00;101039.50;5046306;28;20451;-70
2022/09/25 00:51:29;;;;;;;17.08;16.08;;;;;;;7.05;100.00;101029.94;5046094;28;20048;-71
2022/09/25 00:54:03;;;;;;;17.17;16.17;;;;;;;7.09;100.00;101043.66;5052756;28;20021;-69
2022/09/25 00:56:34;;;;;;;16.98;15.98;;;;;;;7.09;100.00;101038.38;5046050;28;20792;-70
2022/09/25 00:59:01;;;;;;;16.70;15.80;;;;;;;7.05;100.00;101037.84;5045579;28;20082;-71
2022/09/25 01:01:26;;;;;;;17.25;16.25;;;;;;;7.12;100.00;101040.72;5052445;28;20040;-70
2022/09/25 01:03:54;;;;;;;17.50;16.40;;;;;;;6.97;100.00;101048.22;5051125;28;20029;-71
2022/09/25 01:06:23;;;;;;;17.60;16.50;;;;;;;6.91;100.00;101041.72;5052125;28;20438;-69
2022/09/25 01:08:49;;;;;;;16.88;15.90;;;;;;;6.82;100.00;101045.16;5041250;28;20037;-71
2022/09/25 01:11:16;;;;;;;17.15;16.15;;;;;;;6.70;100.00;101046.28;5051066;28;20311;-71
2022/09/25 01:13:42;;;;;;;19.00;17.70;;;;;;;6.70;100.00;101040.19;5047207;28;20021;-71
2022/09/25 01:16:37;;;;;;;18.95;17.65;;;;;;;6.72;100.00;101049.63;5040274;28;20111;-71
2022/09/25 01:19:31;;;;;;;17.55;16.45;;;;;;;6.81;100.00;101050.59;5052309;28;20032;-70
2022/09/25 01:22:45;;;;;;;17.15;16.15;;;;;;;6.74;100.00;101049.47;5052152;28;20056;-70
2022/09/25 01:25:29;;;;;;;18.07;16.87;;;;;;;6.64;100.00;101049.47;5051017;28;20032;-71
2022/09/25 01:28:10;;;;;;;16.98;15.98;;;;;;;6.64;100.00;101052.94;5052292;28;20032;-71
2022/09/25 01:30:41;;;;;;;17.17;16.17;;;;;;;6.57;100.00;101030.72;5052173;28;20033;-71
2022/09/25 01:33:32;;;;;;;17.20;16.20;;;;;;;6.68;100.00;101047.38;5042028;28;20022;-71
2022/09/25 01:36:07;;;;;;;17.17;16.17;;;;;;;6.73;100.00;101050.44;5047794;28;20123;-70
2022/09/25 01:38:42;;;;;;;;;;;;;;;6.74;100.00;101057.38;5052551;28;20025;-70
2022/09/25 01:41:31;;;;;;;16.95;15.95;;;;;;;6.64;100.00;101062.66;5051739;28;20011;-70
2022/09/25 01:44:06;;;;;;;17.15;16.13;;;;;;;6.60;100.00;101061.25;5048363;28;20028;-70
2022/09/25 01:46:50;;;;;;;16.85;15.85;;;;;;;6.63;100.00;101053.06;5054862;28;20138;-69
2022/09/25 01:49:29;;;;;;;16.80;15.80;;;;;;;6.54;100.00;101053.91;5033983;28;20034;-70
2022/09/25 01:51:56;;;;;;;17.33;16.23;;;;;;;6.59;100.00;101056.94;5051986;28;20024;-70
2022/09/25 01:54:47;;;;;;;16.60;15.68;;;;;;;6.64;100.00;101052.09;5056362;28;20025;-71
2022/09/25 01:57:16;;;;;;;17.67;16.58;;;;;;;6.71;100.00;101061.13;5051565;28;20029;-70
2022/09/25 02:00:20;;;;;;;16.35;15.45;;;;;;;6.69;100.00;101052.53;5049167;28;20530;-70
2022/09/25 02:02:54;;;;;;;16.63;15.63;;;;;;;6.71;100.00;101055.03;5039398;28;20327;-70
2022/09/25 02:05:30;;;;;;;16.83;15.83;;;;;;;6.74;100.00;101047.66;5050376;28;20163;-70
2022/09/25 02:08:14;;;;;;;16.80;15.80;;;;;;;6.65;100.00;101054.59;5051733;28;20032;-69
2022/09/25 02:10:47;;;;;;;16.20;15.30;;;;;;;6.62;100.00;101051.41;5040713;28;20028;-70
2022/09/25 02:13:17;;;;;;;16.70;15.70;;;;;;;6.65;100.00;101056.41;5048354;28;20088;-70
2022/09/25 02:15:47;;;;;;;16.30;15.40;;;;;;;6.62;100.00;101048.78;5041450;28;20028;-70
2022/09/25 02:21:15;;;;;;;16.70;15.70;;;;;;;6.63;100.00;101050.44;5043170;28;20031;-71
2022/09/25 02:23:52;;;;;;;17.10;16.00;;;;;;;6.65;100.00;101046.69;5051549;28;20024;-70
2022/09/25 02:26:29;;;;;;;16.20;15.30;;;;;;;6.61;100.00;101049.72;5051338;28;20044;-69
2022/09/25 02:28:56;;;;;;;16.60;15.60;;;;;;;6.54;100.00;101046.81;5051318;28;20033;-70
2022/09/25 02:31:31;;;;;;;16.35;15.45;;;;;;;6.45;100.00;101044.97;5051477;28;20431;-70
2022/09/25 02:33:57;;;;;;;16.92;15.90;;;;;;;6.34;100.00;101043.28;5039675;28;20025;-69
2022/09/25 02:36:22;;;;;;;17.58;16.48;;;;;;;6.30;100.00;101041.06;5048440;28;20031;-69
2022/09/25 02:38:50;;;;;;;16.42;15.48;;;;;;;6.30;100.00;101041.06;5065116;28;20032;-72
2022/09/25 02:41:42;;;;;;;16.85;15.85;;;;;;;6.26;100.00;101047.56;5054664;28;20057;-71
2022/09/25 02:44:26;;;;;;;16.40;15.50;;;;;;;6.33;100.00;101046.06;5051766;28;20024;-70
2022/09/25 02:47:19;;;;;;;16.43;15.43;;;;;;;6.30;100.00;101041.06;5054913;28;20025;-71
2022/09/25 02:49:47;;;;;;;16.85;15.85;;;;;;;6.31;100.00;101045.34;5052036;28;20266;-71
2022/09/25 02:52:17;;;;;;;18.58;17.27;;;;;;;6.18;100.00;101042.16;5043385;28;20021;-70
2022/09/25 02:54:55;;;;;;;16.65;15.65;;;;;;;6.21;100.00;101039.22;5055490;28;20024;-70
2022/09/25 02:57:29;;;;;;;18.20;16.98;;;;;;;6.16;100.00;101037.00;5056051;28;20047;-70
2022/09/25 02:59:59;;;;;;;16.80;15.80;;;;;;;6.11;100.00;101022.56;5055300;28;20029;-70
2022/09/25 03:02:28;;;;;;;16.95;15.95;;;;;;;6.21;100.00;101029.53;5054593;28;20029;-71
2022/09/25 03:04:55;;;;;;;16.40;15.50;;;;;;;6.17;100.00;101029.91;5053969;28;20079;-71
2022/09/25 03:07:21;;;;;;;18.75;17.42;;;;;;;6.18;100.00;101039.50;5051295;28;20028;-70
2022/09/25 03:09:50;;;;;;;17.13;16.08;;;;;;;6.17;100.00;101029.91;5043023;28;20033;-70
2022/09/25 03:12:15;;;;;;;16.73;15.73;;;;;;;6.10;100.00;101040.19;5061906;28;20141;-70
2022/09/25 03:14:42;;;;;;;16.60;15.60;;;;;;;6.08;100.00;101028.91;5041212;28;20029;-72
2022/09/25 03:17:10;;;;;;;17.02;16.00;;;;;;;6.19;100.00;101025.38;5053305;28;20033;-70
2022/09/25 03:19:37;;;;;;;16.73;15.73;;;;;;;6.20;100.00;101016.50;5054577;28;20477;-70
2022/09/25 03:22:03;;;;;;;16.95;15.95;;;;;;;6.07;100.00;101014.91;5054407;28;20025;-71
2022/09/25 03:24:28;;;;;;;16.30;15.40;;;;;;;6.10;100.00;101013.84;5052011;28;20123;-70
2022/09/25 03:26:54;;;;;;;16.58;15.68;;;;;;;6.19;100.00;101018.28;5040252;28;20036;-71
2022/09/25 03:29:20;;;;;;;17.92;16.73;;;;;;;5.94;100.00;101006.41;5053229;28;20024;-71
2022/09/25 03:31:46;;;;;;;16.23;15.32;;;;;;;6.03;100.00;101026.72;5054324;28;20031;-70
2022/09/25 03:34:13;;;;;;;16.70;15.70;;;;;;;5.62;100.00;101022.31;5054092;28;20028;-70
2022/09/25 03:36:40;;;;;;;16.67;15.68;;;;;;;5.77;100.00;101034.16;5045388;28;20555;-71
2022/09/25 03:39:05;;;;;;;17.27;16.20;;;;;;;5.76;100.00;101031.66;5054069;28;20025;-71
2022/09/25 03:41:33;;;;;;;17.15;16.15;;;;;;;5.60;100.00;101032.16;5049897;28;20487;-70
2022/09/25 03:43:59;;;;;;;16.77;15.77;;;;;;;5.73;100.00;101035.41;5052685;28;20040;-71
2022/09/25 03:46:28;;;;;;;16.42;15.52;;;;;;;5.71;100.00;101034.69;5044563;28;20033;-71
2022/09/25 03:48:55;;;;;;;16.95;15.95;;;;;;;5.53;100.00;101041.53;5051247;28;20166;-70
2022/09/25 03:51:21;;;;;;;17.55;16.45;;;;;;;5.77;100.00;101041.25;5052855;28;20040;-70
2022/09/25 03:53:48;;;;;;;16.83;15.82;;;;;;;5.82;100.00;101039.88;5053656;28;20037;-70
2022/09/25 03:56:19;;;;;;;17.38;16.30;;;;;;;5.71;100.00;101032.06;5052594;28;20158;-71
2022/09/25 03:58:46;;;;;;;17.67;16.58;;;;;;;5.76;100.00;101035.13;5052667;28;20028;-70
2022/09/25 04:01:12;;;;;;;17.38;16.27;;;;;;;5.76;100.00;101031.66;5053605;28;20036;-70
2022/09/25 04:03:39;;;;;;;16.40;15.50;;;;;;;5.64;100.00;101030.06;5051413;28;20048;-69
2022/09/25 04:06:07;;;;;;;17.55;16.45;;;;;;;6.20;100.00;101027.03;5053588;28;20574;-70
2022/09/25 04:08:35;;;;;;;16.20;15.30;;;;;;;6.14;100.00;101024.94;5052479;28;20850;-71
2022/09/25 04:11:02;;;;;;;16.50;15.50;;;;;;;6.37;100.00;101029.84;5052380;28;20112;-71
2022/09/25 04:13:30;;;;;;;16.30;15.30;;;;;;;6.62;100.00;101027.69;5048551;28;20018;-71
2022/09/25 04:15:59;;;;;;;17.13;16.00;;;;;;;7.07;100.00;101027.16;5034586;28;20028;-72
2022/09/25 04:18:30;;;;;;;15.07;14.27;;;;;;;7.18;100.00;101025.19;5050767;28;20032;-71
2022/09/25 04:20:57;;;;;;;16.60;15.50;;;;;;;6.53;100.00;101012.66;5053278;28;20031;-71
2022/09/25 04:23:23;;;;;;;16.52;15.43;;;;;;;7.23;100.00;101014.22;5051855;28;20021;-71
2022/09/25 04:25:48;;;;;;;15.07;14.23;;;;;;;7.37;100.00;101010.31;5053342;28;20051;-70
2022/09/25 04:28:14;;;;;;;14.70;13.90;;;;;;;7.75;100.00;101023.41;5053326;28;20523;-70
2022/09/25 04:30:39;;;;;;;14.55;13.75;;;;;;;7.81;100.00;101029.09;5053279;28;20063;-71
2022/09/25 04:35:49;;;;;;;15.33;14.43;;;;;;;9.04;100.00;101011.81;5034936;28;20060;-70
2022/09/25 04:38:14;;;;;;;14.20;13.48;;;;;;;9.40;100.00;101012.59;5041880;28;20401;-70
2022/09/25 04:40:40;;;;;;;13.82;13.13;;;;;;;10.31;100.00;101005.94;5052131;28;20039;-70
2022/09/25 04:43:06;;;;;;;14.57;13.77;;;;;;;8.84;100.00;100997.06;5053527;28;20043;-72
2022/09/25 04:45:35;;;;;;;13.65;12.95;;;;;;;11.67;100.00;101005.28;5053221;28;20566;-73
2022/09/25 04:48:02;;;;;;;14.52;13.73;;;;;;;14.19;100.00;100996.44;5053195;28;20060;-71
2022/09/25 04:50:29;;;;;;;13.43;12.73;;;;;;;14.89;100.00;101001.94;5051842;28;20029;-72
2022/09/25 04:52:58;;;;;;;14.80;14.00;;;;;;;13.89;100.00;101009.81;5050988;28;20044;-71
2022/09/25 04:55:26;;;;;;;14.70;13.90;;;;;;;13.49;100.00;101019.06;5053417;28;20366;-71
2022/09/25 04:57:59;;;;;;;14.23;13.43;;;;;;;12.52;100.00;101009.97;5054119;28;20020;-71
2022/09/25 05:00:28;;;;;;;14.60;13.80;;;;;;;13.07;100.00;101016.88;5053664;28;20055;-71
2022/09/25 05:02:53;;;;;;;14.07;13.38;;;;;;;12.47;100.00;101012.31;5052484;28;20481;-71
2022/09/25 05:05:19;;;;;;;15.18;14.32;;;;;;;11.68;100.00;101014.94;5049760;28;20064;-72
2022/09/25 05:07:56;;;;;;;15.85;14.95;;;;;;;12.15;100.00;101016.81;5051738;28;20378;-71
2022/09/25 05:10:23;;;;;;;15.60;14.70;;;;;;;12.09;100.00;101010.34;5042937;28;20039;-72
2022/09/25 05:12:55;;;;;;;15.98;15.07;;;;;;;12.22;100.00;100996.50;5052896;28;20040;-71
2022/09/25 05:15:20;;;;;;;14.80;14.00;;;;;;;11.95;100.00;101010.22;5048467;28;20036;-72
2022/09/25 05:17:46;;;;;;;14.90;14.10;;;;;;;12.26;100.00;101016.41;5052474;28;20428;-72
2022/09/25 05:20:12;;;;;;;15.40;14.55;;;;;;;15.17;100.00;101012.66;5053199;28;20036;-74
2022/09/25 05:22:37;;;;;;;15.25;14.35;;;;;;;13.86;100.00;101012.81;5052043;28;20017;-72
2022/09/25 05:25:04;;;;;;;15.18;14.32;;;;;;;12.95;100.00;101003.19;5051201;28;20021;-72
2022/09/25 05:27:32;;;;;;;15.32;14.43;;;;;;;13.55;100.00;101008.50;5042919;28;20670;-71
2022/09/25 05:29:58;;;;;;;15.07;14.27;;;;;;;12.92;100.00;101012.34;5059200;28;20029;-72
2022/09/25 05:32:23;;;;;;;15.93;15.02;;;;;;;15.51;100.00;101020.97;5038507;28;20028;-72
2022/09/25 05:34:49;;;;;;;14.57;13.77;;;;;;;17.99;99.78;101021.94;5047079;28;20036;-73
2022/09/25 05:37:15;;;;;;;15.10;14.30;;;;;;;20.44;79.15;101003.91;5052785;28;20033;-71
2022/09/25 05:39:40;;;;;;;14.80;14.00;;;;;;;22.01;66.82;101022.25;5051379;28;20078;-70
2022/09/25 05:42:05;;;;;;;15.13;14.32;;;;;;;21.00;67.24;101013.44;5051154;28;20550;-73
2022/09/25 05:44:32;;;;;;;14.55;13.82;;;;;;;21.57;64.73;101026.44;5052101;28;20021;-73
2022/09/25 05:46:58;;;;;;;14.70;13.90;;;;;;;22.42;62.11;101025.84;5051033;28;20433;-71
2022/09/25 05:49:24;;;;;;;15.60;14.77;;;;;;;22.81;55.82;101019.53;5042157;28;20033;-72
2022/09/25 05:51:49;;;;;;;14.32;13.63;;;;;;;22.43;55.12;101020.19;5050574;28;20098;-71
2022/09/25 05:54:15;;;;;;;14.50;13.80;;;;;;;24.22;52.34;101012.97;5052341;28;20025;-72
2022/09/25 05:56:40;;;;;;;13.63;12.93;;;;;;;23.55;50.47;101007.75;5051725;28;20064;-73
2022/09/25 05:59:06;;;;;;;14.27;13.57;;;;;;;24.25;48.86;101015.19;5046266;28;20060;-70
2022/09/25 06:01:31;;;;;;;13.80;13.10;;;;;;;23.78;48.94;101023.00;5043793;28;20029;-71
2022/09/25 06:03:57;;;;;;;14.95;14.15;;;;;;;24.79;46.68;101021.50;5052375;28;20025;-71
2022/09/25 06:06:22;;;;;;;14.40;13.70;;;;;;;24.09;48.56;101014.22;5051938;28;20428;-72
2022/09/25 06:08:47;;;;;;;14.32;13.63;;;;;;;25.68;45.88;101013.75;5050631;28;20063;-72
2022/09/25 06:11:13;;;;;;;14.35;13.65;;;;;;;24.47;48.23;101021.44;5052118;28;20028;-71
2022/09/25 06:13:39;;;;;;;14.77;13.98;;;;;;;25.65;44.78;101017.03;5049799;28;20056;-70
2022/09/25 06:16:13;;;;;;;14.82;14.05;;;;;;;25.37;45.91;101021.72;5045737;28;20115;-72
2022/09/25 06:18:39;;;;;;;14.77;14.07;;;;;;;23.56;48.82;101031.84;5054775;28;20055;-72
2022/09/25 06:21:05;;;;;;;15.35;14.55;;;;;;;24.69;47.93;101031.44;5054710;28;20495;-71
2022/09/25 06:23:30;;;;;;;14.45;13.75;;;;;;;23.74;47.92;101028.09;5037476;28;20346;-73
2022/09/25 06:26:03;;;;;;;15.32;14.52;;;;;;;24.49;45.47;101026.59;5051985;28;20082;-71
2022/09/25 06:28:30;;;;;;;14.48;13.70;;;;;;;24.09;48.50;101030.47;5050871;28;20384;-74
2022/09/25 06:30:59;;;;;;;15.43;14.57;;;;;;;23.50;49.74;101030.13;5049215;28;20032;-73
2022/09/25 06:33:25;;;;;;;14.30;13.60;;;;;;;25.61;49.44;101039.25;5044516;28;20040;-72
2022/09/25 06:35:50;;;;;;;15.32;14.52;;;;;;;21.87;57.79;101024.41;5053139;28;20032;-71
2022/09/25 06:38:17;;;;;;;14.23;13.50;;;;;;;22.55;57.37;101034.47;5047715;28;20537;-70
2022/09/25 06:40:42;;;;;;;13.90;13.20;;;;;;;24.89;51.10;101038.94;5048980;28;20484;-72
2022/09/25 06:43:10;;;;;;;15.00;14.20;;;;;;;25.53;47.13;101044.38;5045912;28;20041;-70
2022/09/25 06:45:38;;;;;;;14.40;13.70;;;;;;;25.35;45.83;101034.75;5049470;28;20025;-71
2022/09/25 06:48:04;;;;;;;14.10;13.40;;;;;;;25.13;48.13;101029.44;5044988;28;20094;-71
2022/09/25 06:50:48;;;;;;;13.88;13.18;;;;;;;25.18;46.47;101021.31;5046894;28;20063;-70
2022/09/25 06:53:15;;;;;;;;;;;;;;;25.62;43.75;101023.78;5052544;28;20017;-71
2022/09/25 06:55:42;;;;;;;15.32;14.52;;;;;;;24.96;45.19;101023.25;5056516;28;19912;-72
2022/09/25 06:58:11;;;;;;;14.18;13.48;;;;;;;25.74;46.13;101029.06;5050876;28;20021;-71
2022/09/25 07:00:37;;;;;;;14.30;13.60;;;;;;;26.09;44.64;101026.50;5050373;28;20033;-70
2022/09/25 07:05:47;;;;;;;14.10;13.40;;;;;;;25.66;46.08;101024.91;5057885;28;20613;-70
2022/09/25 07:08:16;;;;;;;14.13;13.43;;;;;;;25.07;46.09;101027.75;5058846;28;20056;-71
2022/09/25 07:10:53;;;;;;;13.48;12.77;;;;;;;25.67;45.66;101028.44;5052975;28;20029;-71
2022/09/25 07:13:23;;;;;;;14.30;13.60;;;;;;;27.18;43.47;101030.03;5041653;28;20040;-70
2022/09/25 07:15:54;;;;;;;13.95;13.25;;;;;;;25.79;43.83;101024.47;5050331;28;20479;-70
2022/09/25 07:18:20;;;;;;;14.13;13.43;;;;;;;25.80;47.36;101031.53;5059461;28;20056;-70
2022/09/25 07:20:46;;;;;;;14.20;13.50;;;;;;;27.29;45.31;101030.03;5044008;28;20033;-71
2022/09/25 07:23:16;;;;;;;13.80;13.10;;;;;;;23.63;49.88;101020.88;5048198;28;20081;-72
2022/09/25 07:25:43;;;;;;;12.85;12.25;;;;;;;25.29;49.92;101017.59;5048844;28;20036;-72
2022/09/25 07:28:11;;;;;;;13.20;12.60;;;;;;;26.68;45.30;101026.16;5055056;28;20032;-71
2022/09/25 07:30:37;;;;;;;13.38;12.75;;;;;;;25.89;44.95;101010.91;5055619;28;20078;-71
2022/09/25 07:33:02;;;;;;;14.00;13.30;;;;;;;25.29;47.33;101012.16;5050360;28;20037;-72
2022/09/25 07:35:28;;;;;;;13.10;12.50;;;;;;;26.13;46.34;101015.91;5046863;28;20036;-71
2022/09/25 07:37:56;;;;;;;13.30;12.70;;;;;;;25.94;45.35;101012.84;5046735;28;20037;-67
2022/09/25 07:40:23;;;;;;;14.07;13.38;;;;;;;26.98;42.73;101008.22;5047468;28;20090;-69
2022/09/25 07:42:48;;;;;;;13.48;12.82;;;;;;;28.27;40.47;101008.47;5043153;28;20033;-68
2022/09/25 07:45:14;;;;;;;13.63;12.93;;;;;;;27.43;41.25;101003.84;5049483;28;20485;-69
2022/09/25 07:47:39;;;;;;;13.20;12.60;;;;;;;28.67;39.22;101014.81;5052199;28;20049;-70
2022/09/25 07:50:05;;;;;;;14.38;13.68;;;;;;;29.27;38.11;101018.19;5052182;28;20102;-69
2022/09/25 07:52:31;;;;;;;14.77;13.98;;;;;;;28.09;37.77;101015.38;5052475;28;20048;-70
2022/09/25 07:54:57;;;;;;;14.07;13.38;;;;;;;29.16;36.62;101024.84;5051933;28;20477;-69
2022/09/25 07:57:22;;;;;;;13.25;12.65;;;;;;;29.18;36.14;101014.44;5053062;28;20116;-69
2022/09/25 07:59:48;;;;;;;13.95;13.25;;;;;;;29.60;35.71;101016.53;5053585;28;20433;-72
2022/09/25 08:02:13;;;;;;;13.88;13.18;;;;;;;29.45;35.43;101019.38;5053978;28;20021;-69
2022/09/25 08:04:39;;;;;;;14.48;13.77;;;;;;;27.84;36.83;101006.47;5037920;28;20560;-70
2022/09/25 08:07:04;;;;;;;13.40;12.80;;;;;;;28.03;36.34;100996.59;5045321;28;20037;-69
2022/09/25 08:09:30;;;;;;;12.88;12.27;;;;;;;28.30;35.34;101007.13;5053810;28;20025;-69
2022/09/25 08:11:55;;;;;;;13.23;12.63;;;;;;;29.19;34.76;101002.41;5053937;28;20469;-69
2022/09/25 08:14:21;;;;;;;13.60;12.90;;;;;;;29.64;33.85;101000.34;5044099;28;20021;-69
2022/09/25 08:16:48;;;;;;;14.30;13.60;;;;;;;29.37;34.52;100993.47;5041555;28;20093;-69
2022/09/25 08:19:16;;;;;;;12.90;12.30;;;;;;;28.87;34.75;100997.47;5045245;28;20017;-70
2022/09/25 08:21:42;;;;;;;13.65;12.95;;;;;;;28.33;35.98;100999.19;5045683;28;20017;-70
2022/09/25 08:24:09;;;;;;;12.88;12.27;;;;;;;28.73;34.53;100986.38;5046383;28;20028;-71
2022/09/25 08:26:35;;;;;;;13.57;12.93;;;;;;;28.85;34.81;100991.47;5043458;28;20091;-70
2022/09/25 08:29:01;;;;;;;13.25;12.65;;;;;;;27.31;36.85;100985.06;5049659;28;20437;-70
2022/09/25 08:31:27;;;;;;;13.40;12.80;;;;;;;27.48;36.51;100987.50;5051203;28;20040;-69
2022/09/25 08:33:53;;;;;;;14.82;14.02;;;;;;;26.86;37.22;100994.88;5051584;28;20473;-71
2022/09/25 08:36:20;;;;;;;15.15;14.35;;;;;;;25.66;40.34;100980.59;5052981;28;20052;-69
2022/09/25 08:38:45;;;;;;;14.65;13.85;;;;;;;26.57;39.35;100983.69;5053292;28;20020;-71
2022/09/25 08:41:21;;;;;;;14.80;14.00;;;;;;;26.93;38.53;100979.06;5052634;28;20429;-71
2022/09/25 08:44:19;;;;;;;15.57;14.68;;;;;;;26.40;39.49;100977.69;5052708;28;20032;-69
2022/09/25 08:50:05;;;;;;;15.85;14.95;;;;;;;26.98;39.38;100972.81;5050862;28;20025;-70
2022/09/25 08:52:32;;;;;;;15.23;14.43;;;;;;;26.70;39.76;100972.28;5048819;28;20052;-70
2022/09/25 08:54:58;;;;;;;15.07;14.27;;;;;;;24.67;42.22;100968.44;5052364;28;20029;-69
2022/09/25 08:57:36;;;;;;;15.10;14.30;;;;;;;25.74;42.26;100966.53;5052921;28;20025;-70
2022/09/25 09:00:13;;;;;;;15.88;14.98;;;;;;;26.71;40.38;100962.19;5052682;28;20025;-70
2022/09/25 09:02:45;;;;;;;14.43;13.73;;;;;;;25.67;40.34;100944.19;5052713;28;20455;-70
2022/09/25 09:05:33;;;;;;;15.23;14.43;;;;;;;26.23;40.03;100956.13;5051488;28;20098;-70
2022/09/25 09:08:08;;;;;;;15.38;14.52;;;;;;;27.59;37.08;100945.47;5040103;28;20560;-70
2022/09/25 09:10:41;;;;;;;15.18;14.38;;;;;;;27.05;35.83;100942.63;5051637;28;20055;-70
2022/09/25 09:13:30;;;;;;;14.50;13.80;;;;;;;25.42;37.76;100940.28;5039488;28;20542;-70
2022/09/25 09:16:18;;;;;;;16.05;15.15;;;;;;;25.69;35.93;100926.53;5051944;28;20104;-70
2022/09/25 09:18:45;;;;;;;15.35;14.55;;;;;;;26.96;35.18;100926.00;5050974;28;20025;-69
2022/09/25 09:21:25;;;;;;;16.17;15.20;;;;;;;24.71;38.64;100924.28;5050982;28;20028;-71
2022/09/25 09:24:10;;;;;;;16.25;15.35;;;;;;;25.69;35.06;100921.09;5052160;28;20445;-68
2022/09/25 09:26:51;;;;;;;14.98;14.18;;;;;;;25.07;37.03;100917.25;5050872;28;20108;-69
2022/09/25 09:29:38;;;;;;;15.55;14.73;;;;;;;24.94;37.10;100906.00;5051985;28;20060;-69
2022/09/25 09:32:16;;;;;;;15.15;14.35;;;;;;;23.33;41.39;100908.34;5040882;28;20203;-69
2022/09/25 09:34:56;;;;;;;15.15;14.35;;;;;;;23.63;40.82;100905.22;5038939;28;20549;-69
2022/09/25 09:37:57;;;;;;;14.90;14.15;;;;;;;23.84;40.59;100902.78;5039763;28;20108;-69
2022/09/25 09:40:28;;;;;;;15.93;15.02;;;;;;;23.56;40.37;100898.34;5048882;28;20033;-69
2022/09/25 09:43:38;;;;;;;14.65;13.95;;;;;;;23.74;40.95;100889.13;5052243;28;20032;-69
2022/09/25 09:46:12;;;;;;;15.63;14.73;;;;;;;22.78;44.62;100889.38;5037008;28;20087;-68
2022/09/25 09:49:06;;;;;;;15.38;14.57;;;;;;;23.43;41.33;100886.00;5050557;28;20091;-70
2022/09/25 09:51:39;;;;;;;15.77;14.88;;;;;;;23.50;41.11;100873.06;5050553;28;20019;-70
2022/09/25 09:54:34;;;;;;;15.10;14.30;;;;;;;23.39;39.53;100874.84;5050734;28;20823;-70
2022/09/25 09:57:03;;;;;;;14.75;13.95;;;;;;;22.66;40.45;100878.63;5040009;28;20037;-70
2022/09/25 09:59:42;;;;;;;15.40;14.55;;;;;;;21.80;41.09;100888.66;5051688;28;20029;-72
2022/09/25 10:02:36;;;;;;;14.38;13.63;;;;;;;21.33;42.34;100885.28;5043315;28;20111;-69
2022/09/25 10:05:08;;;;;;;14.63;13.83;;;;;;;21.15;41.42;100878.94;5051896;28;20094;-70
2022/09/25 10:07:37;;;;;;;15.20;14.40;;;;;;;21.15;43.55;100872.69;5051998;28;20055;-70
2022/09/25 10:10:13;;;;;;;15.63;14.73;;;;;;;20.83;43.14;100864.16;5047014;28;20029;-71
2022/09/25 10:12:42;;;;;;;14.77;13.98;;;;;;;21.23;41.56;100850.78;5042548;28;20025;-71
2022/09/25 10:15:18;;;;;;;14.90;14.10;;;;;;;21.24;42.47;100847.00;5050532;28;20091;-70
2022/09/25 10:17:44;;;;;;;15.35;14.50;;;;;;;20.77;43.33;100846.22;5051593;28;20028;-71
2022/09/25 10:20:38;;;;;;;15.07;14.27;;;;;;;21.09;43.56;100843.97;5051480;28;20029;-69
2022/09/25 10:23:16;;;;;;;15.05;14.25;;;;;;;21.44;44.85;100844.75;5051016;28;20361;-70
2022/09/25 10:25:42;;;;;;;15.02;14.23;;;;;;;21.15;45.24;100837.63;5050855;28;20052;-71
2022/09/25 10:28:31;;;;;;;14.52;13.80;;;;;;;21.40;43.16;100842.78;5036763;28;20065;-70
2022/09/25 10:30:57;;;;;;;14.55;13.75;;;;;;;20.98;45.33;100838.34;5039542;28;20087;-71
2022/09/25 10:33:29;;;;;;;15.88;14.98;;;;;;;21.42;44.84;100833.38;5051385;28;20435;-71
2022/09/25 10:35:55;;;;;;;14.88;14.07;;;;;;;20.96;44.35;100842.34;5046288;28;20022;-70
2022/09/25 10:38:42;;;;;;;15.45;14.55;;;;;;;21.66;44.15;100839.53;5043141;28;20051;-70
2022/09/25 10:41:12;;;;;;;14.70;13.90;;;;;;;21.56;41.81;100820.44;5051089;28;20031;-70
2022/09/25 10:44:00;;;;;;;14.57;13.85;;;;;;;21.80;40.97;100818.44;5047702;28;20021;-70
2022/09/25 10:52:11;;;;;;;14.43;13.73;;;;;;;21.41;43.90;100822.81;5046563;28;20721;-69
2022/09/25 10:54:36;;;;;;;16.17;15.18;;;;;;;21.15;44.30;100816.03;5050520;28;20078;-70
2022/09/25 10:57:34;;;;;;;14.73;13.93;;;;;;;21.31;44.15;100820.75;5047278;28;20029;-71
2022/09/25 11:00:17;;;;;;;16.60;15.57;;;;;;;21.10;45.46;100818.66;5035727;28;20069;-71
2022/09/25 11:02:45;;;;;;;15.53;14.63;;;;;;;21.24;44.83;100803.84;5040066;28;20025;-69
2022/09/25 11:05:17;;;;;;;15.77;14.88;;;;;;;20.84;44.90;100798.38;5057929;28;20024;-69
2022/09/25 11:08:01;;;;;;;15.18;14.38;;;;;;;20.57;46.16;100819.63;5054751;28;20071;-69
2022/09/25 11:10:41;;;;;;;14.65;13.85;;;;;;;21.25;45.44;100822.47;5053069;28;20032;-69
2022/09/25 11:13:19;;;;;;;14.98;14.18;;;;;;;21.05;45.92;100813.94;5059373;28;20025;-69
2022/09/25 11:15:52;;;;;;;14.98;14.18;;;;;;;20.73;47.90;100818.09;5044414;28;20029;-70
2022/09/25 11:18:48;;;;;;;15.70;14.80;;;;;;;20.80;46.25;100819.63;5038150;28;20067;-69
2022/09/25 11:21:16;;;;;;;15.15;14.35;;;;;;;20.54;47.32;100815.50;5039645;28;20032;-69
2022/09/25 11:23:58;;;;;;;15.68;14.77;;;;;;;20.46;50.26;100807.75;5048062;28;20033;-70
2022/09/25 11:26:37;;;;;;;15.55;14.65;;;;;;;20.79;50.36;100812.59;5064152;28;20025;-68
2022/09/25 11:29:11;;;;;;;15.73;14.82;;;;;;;20.84;49.27;100812.69;5056371;28;20158;-71
2022/09/25 11:31:42;;;;;;;15.45;14.55;;;;;;;21.05;49.51;100811.25;5045875;28;20032;-71
2022/09/25 11:34:29;;;;;;;15.52;14.63;;;;;;;21.21;47.74;100805.13;5060698;28;20099;-70
2022/09/25 11:36:55;;;;;;;17.13;16.02;;;;;;;20.88;47.93;100807.66;5037723;28;20112;-69
2022/09/25 11:42:49;;;;;;;16.13;15.15;;;;;;;20.78;48.76;100805.53;5048926;28;20080;-70
2022/09/25 11:45:36;;;;;;;16.52;15.48;;;;;;;20.86;47.74;100807.06;5042065;28;20053;-70
2022/09/25 11:48:29;;;;;;;16.08;15.13;;;;;;;20.67;47.45;100803.66;5054135;28;20146;-71
2022/09/25 11:51:09;;;;;;;15.85;14.95;;;;;;;20.51;47.58;100799.78;5058092;28;20024;-71
2022/09/25 11:53:47;;;;;;;16.05;15.13;;;;;;;20.85;50.95;100806.22;5051976;28;20028;-71